createdAt,value
2022-10-11T00:00:34.255Z,58.12
2022-10-11T00:01:38.597Z,58.99
2022-10-11T00:02:42.752Z,59.67
2022-10-11T00:03:46.868Z,60.11
2022-10-11T00:04:50.972Z,60.33
2022-10-11T00:05:55.081Z,60.43
2022-10-11T00:06:59.184Z,60.73
2022-10-11T00:08:03.289Z,60.63
2022-10-11T00:09:07.393Z,60.22
2022-10-11T00:10:11.511Z,59.99
2022-10-11T00:11:15.624Z,60.02
2022-10-11T00:12:19.719Z,59.91
2022-10-11T00:13:23.813Z,59.94
2022-10-11T00:14:27.922Z,59.94
2022-10-11T00:15:32.074Z,59.96
2022-10-11T00:16:36.176Z,59.73
2022-10-11T00:17:40.262Z,59.82
2022-10-11T00:18:44.365Z,59.56
2022-10-11T00:19:48.466Z,59.65
2022-10-11T00:20:52.605Z,59.53
2022-10-11T00:21:56.684Z,59.75
2022-10-11T00:23:00.777Z,59.74
2022-10-11T00:24:04.893Z,59.58
2022-10-11T00:25:09.028Z,59.84
2022-10-11T00:26:13.146Z,59.81
2022-10-11T00:27:17.241Z,59.34
2022-10-11T00:28:21.519Z,59.6
2022-10-11T00:29:25.659Z,59.24
2022-10-11T00:30:29.797Z,59.15
2022-10-11T00:31:37.580Z,59.43
2022-10-11T00:32:41.704Z,59.64
2022-10-11T00:33:45.839Z,59.9
2022-10-11T00:34:49.956Z,59.62
2022-10-11T00:35:54.085Z,59.68
2022-10-11T00:36:58.182Z,59.92
2022-10-11T00:38:02.289Z,60.1
2022-10-11T00:39:06.374Z,59.41
2022-10-11T00:40:10.627Z,59.23
2022-10-11T00:41:14.714Z,59.26
2022-10-11T00:42:18.862Z,59.58
2022-10-11T00:43:22.966Z,59.94
2022-10-11T00:44:27.101Z,59.62
2022-10-11T00:45:31.204Z,59.8
2022-10-11T00:46:35.331Z,59.75
2022-10-11T00:47:39.474Z,59.55
2022-10-11T00:48:43.599Z,59.61
2022-10-11T00:49:47.696Z,59.64
2022-10-11T00:50:51.793Z,59.93
2022-10-11T00:51:55.936Z,59.76
2022-10-11T00:53:00.061Z,60.1
2022-10-11T00:54:04.175Z,60.47
2022-10-11T00:55:08.326Z,60.64
2022-10-11T00:56:12.456Z,60.75
2022-10-11T00:57:16.590Z,60.84
2022-10-11T00:58:20.727Z,60.73
2022-10-11T00:59:24.843Z,60.79
2022-10-11T01:00:28.958Z,60.82
2022-10-11T01:01:33.293Z,60.84
2022-10-11T01:02:37.462Z,60.97
2022-10-11T01:03:41.591Z,60.89
2022-10-11T01:04:45.680Z,60.76
2022-10-11T01:05:49.791Z,60.68
2022-10-11T01:06:53.918Z,60.44
2022-10-11T01:07:58.039Z,60.13
2022-10-11T01:09:02.190Z,60.42
2022-10-11T01:10:06.316Z,60.64
2022-10-11T01:11:10.432Z,60.82
2022-10-11T01:12:14.522Z,60.85
2022-10-11T01:13:18.628Z,60.95
2022-10-11T01:14:22.768Z,60.85
2022-10-11T01:15:26.938Z,60.71
2022-10-11T01:16:31.034Z,60.72
2022-10-11T01:17:35.146Z,60.44
2022-10-11T01:18:39.250Z,59.9
2022-10-11T01:19:43.361Z,59.7
2022-10-11T01:20:47.461Z,59.2
2022-10-11T01:21:51.567Z,59.04
2022-10-11T01:22:55.688Z,58.8
2022-10-11T01:24:01.790Z,58.53
2022-10-11T01:25:06.822Z,58.76
2022-10-11T01:26:10.899Z,59.32
2022-10-11T01:27:15.014Z,59.48
2022-10-11T01:28:19.343Z,59.12
2022-10-11T01:29:23.475Z,59.4
2022-10-11T01:30:27.597Z,59.38
2022-10-11T01:31:31.743Z,58.93
2022-10-11T01:32:35.807Z,58.86
2022-10-11T01:33:39.946Z,58.76
2022-10-11T01:34:44.049Z,59.42
2022-10-11T01:35:48.194Z,59.81
2022-10-11T01:36:52.298Z,59.79
2022-10-11T01:37:56.412Z,59.55
2022-10-11T01:39:00.520Z,60.07
2022-10-11T01:40:04.631Z,60.29
2022-10-11T01:41:08.768Z,60.2
2022-10-11T01:42:12.892Z,60.29
2022-10-11T01:43:16.998Z,60.4
2022-10-11T01:44:21.090Z,60.41
2022-10-11T01:45:25.490Z,60.42
2022-10-11T01:46:29.651Z,60.34
2022-10-11T01:47:33.745Z,60.33
2022-10-11T01:48:37.853Z,60.51
2022-10-11T01:49:41.946Z,60.44
2022-10-11T01:50:46.063Z,60.42
2022-10-11T01:51:50.191Z,59.88
2022-10-11T01:52:54.302Z,59.39
2022-10-11T01:53:58.419Z,59.3
2022-10-11T01:55:18.005Z,59.13
2022-10-11T01:56:22.171Z,58.96
2022-10-11T01:57:26.467Z,59.36
2022-10-11T01:58:30.573Z,59.44
2022-10-11T01:59:34.708Z,59.72
2022-10-11T02:00:38.868Z,59.86
2022-10-11T02:01:43.325Z,59.13
2022-10-11T02:02:47.515Z,58.9
2022-10-11T02:03:51.621Z,59.06
2022-10-11T02:04:55.722Z,59.2
2022-10-11T02:05:59.807Z,59.41
2022-10-11T02:07:04.119Z,59.25
2022-10-11T02:08:08.287Z,59.1
2022-10-11T02:09:12.393Z,59.08
2022-10-11T02:10:16.517Z,58.69
2022-10-11T02:11:20.690Z,58.96
2022-10-11T02:12:24.806Z,59.23
2022-10-11T02:13:28.932Z,59.17
2022-10-11T02:14:33.026Z,59.44
2022-10-11T02:15:37.113Z,59.68
2022-10-11T02:16:41.257Z,59.92
2022-10-11T02:17:45.362Z,59.59
2022-10-11T02:18:49.435Z,59.57
2022-10-11T02:19:53.553Z,59.52
2022-10-11T02:20:57.659Z,60.12
2022-10-11T02:22:01.789Z,60.57
2022-10-11T02:23:05.880Z,60.8
2022-10-11T02:24:09.963Z,61.11
2022-10-11T02:25:14.047Z,61.27
2022-10-11T02:26:18.153Z,61.12
2022-10-11T02:27:22.264Z,61.17
2022-10-11T02:28:26.936Z,61.17
2022-10-11T02:29:31.090Z,61.15
2022-10-11T02:30:35.186Z,61.13
2022-10-11T02:31:39.295Z,61.1
2022-10-11T02:32:43.396Z,61.16
2022-10-11T02:33:47.510Z,61.09
2022-10-11T02:34:51.592Z,61.01
2022-10-11T02:35:55.686Z,60.84
2022-10-11T02:36:59.785Z,60.47
2022-10-11T02:38:03.873Z,60.74
2022-10-11T02:39:07.969Z,60.34
2022-10-11T02:40:12.047Z,60.18
2022-10-11T02:41:16.144Z,60.17
2022-10-11T02:42:20.250Z,60.05
2022-10-11T02:43:24.369Z,59.92
2022-10-11T02:44:28.474Z,59.69
2022-10-11T02:45:32.577Z,59.41
2022-10-11T02:46:36.677Z,59.19
2022-10-11T02:47:40.924Z,59
2022-10-11T02:48:45.017Z,58.86
2022-10-11T02:49:49.125Z,58.87
2022-10-11T02:50:53.231Z,58.84
2022-10-11T02:51:57.307Z,58.83
2022-10-11T02:53:01.617Z,58.84
2022-10-11T02:54:05.747Z,58.85
2022-10-11T02:55:09.864Z,58.84
2022-10-11T02:56:13.988Z,58.85
2022-10-11T02:57:18.101Z,58.87
2022-10-11T02:58:22.267Z,58.92
2022-10-11T02:59:26.398Z,59
2022-10-11T03:00:30.496Z,59.25
2022-10-11T03:01:34.839Z,59.13
2022-10-11T03:02:38.998Z,59.11
2022-10-11T03:03:43.092Z,59.09
2022-10-11T03:04:47.236Z,59.03
2022-10-11T03:05:51.299Z,58.88
2022-10-11T03:06:55.403Z,58.75
2022-10-11T03:07:59.490Z,58.56
2022-10-11T03:09:03.675Z,58.45
2022-10-11T03:10:07.791Z,58.37
2022-10-11T03:11:11.895Z,58.52
2022-10-11T03:12:15.992Z,58.67
2022-10-11T03:13:20.593Z,58.65
2022-10-11T03:14:24.690Z,58.7
2022-10-11T03:15:28.803Z,58.69
2022-10-11T03:16:32.920Z,58.79
2022-10-11T03:17:39.027Z,58.77
2022-10-11T03:18:43.132Z,58.81
2022-10-11T03:19:47.227Z,58.88
2022-10-11T03:20:51.351Z,58.99
2022-10-11T03:21:55.452Z,58.99
2022-10-11T03:22:59.541Z,59.01
2022-10-11T03:24:03.629Z,59.03
2022-10-11T03:25:07.710Z,58.96
2022-10-11T03:26:11.822Z,58.82
2022-10-11T03:27:15.921Z,58.6
2022-10-11T03:28:20.289Z,58.41
2022-10-11T03:29:24.421Z,58.39
2022-10-11T03:30:28.518Z,58.41
2022-10-11T03:31:32.961Z,58.33
2022-10-11T03:32:37.055Z,58.4
2022-10-11T03:33:41.183Z,58.49
2022-10-11T03:34:45.345Z,58.54
2022-10-11T03:35:49.452Z,58.55
2022-10-11T03:36:53.578Z,58.61
2022-10-11T03:37:57.719Z,58.7
2022-10-11T03:39:01.826Z,58.75
2022-10-11T03:40:05.954Z,58.78
2022-10-11T03:41:10.062Z,58.8
2022-10-11T03:42:14.205Z,58.83
2022-10-11T03:43:18.334Z,58.94
2022-10-11T03:44:22.433Z,59
2022-10-11T03:45:26.536Z,59.07
2022-10-11T03:46:30.987Z,59.08
2022-10-11T03:47:35.106Z,59.12
2022-10-11T03:48:39.204Z,59.26
2022-10-11T03:49:45.758Z,59.26
2022-10-11T03:50:49.879Z,59.3
2022-10-11T03:51:53.976Z,59.34
2022-10-11T03:52:58.102Z,59.39
2022-10-11T03:54:02.218Z,59.44
2022-10-11T03:55:06.328Z,59.49
2022-10-11T03:56:11.462Z,59.56
2022-10-11T03:57:15.713Z,59.63
2022-10-11T03:58:19.818Z,59.6
2022-10-11T03:59:23.911Z,59.65
2022-10-11T04:00:28.016Z,59.69
2022-10-11T04:01:32.426Z,59.72
2022-10-11T04:02:40.925Z,59.76
2022-10-11T04:03:45.071Z,59.8
2022-10-11T04:04:49.167Z,59.78
2022-10-11T04:05:53.285Z,59.83
2022-10-11T04:06:57.414Z,59.87
2022-10-11T04:08:01.502Z,59.88
2022-10-11T04:09:05.611Z,59.92
2022-10-11T04:10:09.731Z,59.95
2022-10-11T04:11:13.851Z,59.97
2022-10-11T04:12:17.960Z,59.97
2022-10-11T04:13:22.096Z,59.98
2022-10-11T04:14:26.216Z,60.42
2022-10-11T04:15:30.316Z,60.14
2022-10-11T04:16:34.460Z,60.39
2022-10-11T04:17:38.568Z,60.31
2022-10-11T04:18:42.695Z,60.61
2022-10-11T04:19:46.830Z,60.46
2022-10-11T04:20:50.913Z,60.33
2022-10-11T04:21:55.096Z,60.28
2022-10-11T04:22:59.202Z,60.22
2022-10-11T04:24:03.307Z,60.31
2022-10-11T04:25:07.443Z,60.25
2022-10-11T04:26:11.547Z,60.87
2022-10-11T04:27:15.634Z,60.6
2022-10-11T04:28:19.967Z,60.43
2022-10-11T04:29:25.818Z,60.28
2022-10-11T04:30:31.206Z,60.23
2022-10-11T04:31:35.310Z,60.33
2022-10-11T04:32:39.425Z,60.38
2022-10-11T04:33:43.524Z,60.13
2022-10-11T04:34:47.630Z,60.16
2022-10-11T04:35:51.774Z,59.82
2022-10-11T04:36:55.844Z,59.72
2022-10-11T04:37:59.946Z,59.86
2022-10-11T04:39:04.075Z,59.5
2022-10-11T04:40:08.182Z,59.69
2022-10-11T04:41:12.276Z,59.94
2022-10-11T04:42:16.378Z,60.17
2022-10-11T04:43:20.497Z,60.3
2022-10-11T04:44:24.601Z,60.41
2022-10-11T04:45:28.708Z,60.48
2022-10-11T04:46:32.830Z,60.6
2022-10-11T04:47:36.917Z,60.54
2022-10-11T04:48:41.060Z,60.46
2022-10-11T04:49:46.970Z,60.46
2022-10-11T04:50:51.082Z,60.57
2022-10-11T04:51:55.197Z,60.58
2022-10-11T04:52:59.317Z,60.56
2022-10-11T04:54:03.426Z,60.55
2022-10-11T04:55:07.510Z,60.55
2022-10-11T04:56:12.118Z,60.67
2022-10-11T04:57:16.260Z,60.67
2022-10-11T04:58:20.395Z,60.62
2022-10-11T04:59:24.539Z,60.45
2022-10-11T05:00:28.666Z,60.08
2022-10-11T05:01:32.936Z,60.15
2022-10-11T05:02:37.168Z,59.79
2022-10-11T05:03:41.294Z,59.92
2022-10-11T05:04:45.466Z,59.99
2022-10-11T05:05:49.571Z,59.76
2022-10-11T05:06:53.667Z,60.37
2022-10-11T05:07:57.784Z,60.42
2022-10-11T05:09:01.908Z,59.97
2022-10-11T05:10:06.001Z,60.08
2022-10-11T05:11:10.110Z,60.24
2022-10-11T05:12:14.203Z,59.73
2022-10-11T05:13:18.361Z,59.3
2022-10-11T05:14:22.488Z,59.74
2022-10-11T05:15:26.589Z,59.23
2022-10-11T05:16:30.691Z,59.19
2022-10-11T05:17:34.812Z,59.45
2022-10-11T05:18:38.942Z,59.3
2022-10-11T05:19:43.057Z,58.96
2022-10-11T05:20:47.171Z,58.84
2022-10-11T05:21:51.279Z,58.91
2022-10-11T05:22:55.461Z,58.96
2022-10-11T05:23:59.567Z,58.85
2022-10-11T05:25:03.732Z,58.87
2022-10-11T05:26:09.640Z,58.9
2022-10-11T05:27:13.904Z,58.91
2022-10-11T05:28:18.270Z,58.63
2022-10-11T05:29:22.433Z,58.86
2022-10-11T05:30:26.529Z,58.73
2022-10-11T05:31:30.653Z,58.9
2022-10-11T05:32:34.778Z,59.15
2022-10-11T05:33:38.902Z,58.79
2022-10-11T05:34:43.041Z,59.07
2022-10-11T05:35:47.166Z,59.19
2022-10-11T05:36:51.289Z,59.04
2022-10-11T05:37:55.387Z,58.75
2022-10-11T05:38:59.479Z,58.85
2022-10-11T05:40:03.612Z,59.34
2022-10-11T05:41:07.719Z,59.33
2022-10-11T05:42:12.104Z,59.06
2022-10-11T05:43:16.190Z,59.04
2022-10-11T05:44:20.284Z,59.08
2022-10-11T05:45:24.388Z,59.57
2022-10-11T05:46:28.476Z,59.89
2022-10-11T05:47:32.619Z,59.97
2022-10-11T05:48:36.716Z,60
2022-10-11T05:49:40.821Z,60.19
2022-10-11T05:50:44.922Z,60.36
2022-10-11T05:51:48.998Z,60.55
2022-10-11T05:52:53.123Z,60.64
2022-10-11T05:53:57.587Z,60.73
2022-10-11T05:55:01.683Z,60.64
2022-10-11T05:56:07.087Z,60.74
2022-10-11T05:57:11.524Z,60.58
2022-10-11T05:58:15.649Z,60.68
2022-10-11T05:59:19.741Z,60.63
2022-10-11T06:00:23.861Z,60.51
2022-10-11T06:01:28.205Z,61.12
2022-10-11T06:02:32.398Z,61.1
2022-10-11T06:03:36.511Z,61.19
2022-10-11T06:04:40.594Z,60.8
2022-10-11T06:05:44.699Z,61.3
2022-10-11T06:06:48.811Z,61.37
2022-10-11T06:07:52.903Z,61.02
2022-10-11T06:08:56.999Z,60.91
2022-10-11T06:10:01.095Z,61.14
2022-10-11T06:11:07.282Z,61.28
2022-10-11T06:12:13.295Z,61.58
2022-10-11T06:13:17.409Z,61.3
2022-10-11T06:14:21.513Z,61.56
2022-10-11T06:15:25.649Z,61.28
2022-10-11T06:16:29.746Z,61.35
2022-10-11T06:17:33.839Z,61.56
2022-10-11T06:18:37.942Z,61.16
2022-10-11T06:19:42.030Z,61.28
2022-10-11T06:20:46.138Z,61.23
2022-10-11T06:21:50.279Z,61.51
2022-10-11T06:22:54.395Z,61.56
2022-10-11T06:24:03.161Z,61.67
2022-10-11T06:25:07.251Z,62.12
2022-10-11T06:26:12.236Z,62.33
2022-10-11T06:27:16.516Z,62.37
2022-10-11T06:28:20.919Z,62.35
2022-10-11T06:29:25.073Z,62.41
2022-10-11T06:30:29.392Z,62.44
2022-10-11T06:31:33.531Z,62.7
2022-10-11T06:32:37.628Z,62.71
2022-10-11T06:33:41.744Z,62.81
2022-10-11T06:34:45.838Z,62.77
2022-10-11T06:35:49.972Z,62.75
2022-10-11T06:36:54.086Z,62.74
2022-10-11T06:37:58.193Z,62.69
2022-10-11T06:39:02.318Z,62.63
2022-10-11T06:40:06.423Z,62.62
2022-10-11T06:41:10.535Z,62.58
2022-10-11T06:42:14.643Z,62.58
2022-10-11T06:43:18.877Z,62.45
2022-10-11T06:44:22.991Z,62.44
2022-10-11T06:45:27.089Z,62.44
2022-10-11T06:46:31.194Z,62.55
2022-10-11T06:47:35.288Z,62.31
2022-10-11T06:48:39.547Z,62.27
2022-10-11T06:49:43.699Z,62.32
2022-10-11T06:51:01.941Z,62.23
2022-10-11T06:52:06.063Z,62.02
2022-10-11T06:53:10.223Z,62.12
2022-10-11T06:54:14.443Z,62.05
2022-10-11T06:55:18.621Z,62.06
2022-10-11T06:56:22.754Z,62.11
2022-10-11T06:57:26.857Z,62.19
2022-10-11T06:58:31.001Z,62.1
2022-10-11T06:59:35.111Z,62.17
2022-10-11T07:00:39.455Z,62.16
2022-10-11T07:01:43.601Z,62.27
2022-10-11T07:02:47.705Z,62.37
2022-10-11T07:03:51.837Z,61.92
2022-10-11T07:04:55.944Z,62.42
2022-10-11T07:06:04.977Z,62.76
2022-10-11T07:07:09.381Z,62.91
2022-10-11T07:08:13.484Z,62.99
2022-10-11T07:09:17.642Z,63
2022-10-11T07:10:21.756Z,62.94
2022-10-11T07:11:25.865Z,62.92
2022-10-11T07:12:29.967Z,62.88
2022-10-11T07:13:34.062Z,62.89
2022-10-11T07:14:38.167Z,62.89
2022-10-11T07:15:42.261Z,62.89
2022-10-11T07:16:46.405Z,62.98
2022-10-11T07:17:50.536Z,62.76
2022-10-11T07:19:01.683Z,62.69
2022-10-11T07:20:05.835Z,62.79
2022-10-11T07:21:09.975Z,62.81
2022-10-11T07:22:14.075Z,62.74
2022-10-11T07:23:18.255Z,62.31
2022-10-11T07:24:22.581Z,62.55
2022-10-11T07:25:26.825Z,62.65
2022-10-11T07:26:39.636Z,62.75
2022-10-11T07:27:43.809Z,62.85
2022-10-11T07:28:48.283Z,62.89
2022-10-11T07:29:52.481Z,62.69
2022-10-11T07:30:56.628Z,62.62
2022-10-11T07:32:00.741Z,62.66
2022-10-11T07:33:04.897Z,62.89
2022-10-11T07:34:09.093Z,62.88
2022-10-11T07:35:13.255Z,62.82
2022-10-11T07:36:17.372Z,62.88
2022-10-11T07:37:21.465Z,62.99
2022-10-11T07:38:25.999Z,62.88
2022-10-11T07:39:30.098Z,62.93
2022-10-11T07:40:34.193Z,62.96
2022-10-11T07:41:45.793Z,62.93
2022-10-11T07:42:50.191Z,62.87
2022-10-11T07:43:54.327Z,62.86
2022-10-11T07:44:58.458Z,62.87
2022-10-11T07:46:03.165Z,62.97
2022-10-11T07:47:12.874Z,63.13
2022-10-11T07:48:16.976Z,63.06
2022-10-11T07:49:21.109Z,62.98
2022-10-11T07:50:25.351Z,62.99
2022-10-11T07:51:29.472Z,63.07
2022-10-11T07:52:33.585Z,62.97
2022-10-11T07:53:37.699Z,63.27
2022-10-11T07:54:41.872Z,63.32
2022-10-11T07:55:45.981Z,63.23
2022-10-11T07:56:50.092Z,63.38
2022-10-11T07:57:54.619Z,63.17
2022-10-11T07:58:58.792Z,63.13
2022-10-11T08:00:02.939Z,63.13
2022-10-11T08:01:07.242Z,63.11
2022-10-11T08:02:11.417Z,63.2
2022-10-11T08:03:15.593Z,63.19
2022-10-11T08:04:19.746Z,63.23
2022-10-11T08:05:23.888Z,63.21
2022-10-11T08:06:28.050Z,63.24
2022-10-11T08:07:32.368Z,63.22
2022-10-11T08:08:36.506Z,63.24
2022-10-11T08:09:40.646Z,63.12
2022-10-11T08:10:45.037Z,63.08
2022-10-11T08:11:49.313Z,63.15
2022-10-11T08:12:53.770Z,63.17
2022-10-11T08:13:57.886Z,63.2
2022-10-11T08:53:48.304Z,63.3
2022-10-11T08:54:52.420Z,63.35
2022-10-11T08:55:56.562Z,63.33
2022-10-11T08:57:00.670Z,63.32
2022-10-11T08:58:04.833Z,63.4
2022-10-11T08:59:17.995Z,63.43
2022-10-11T09:00:48.857Z,63.35
2022-10-11T09:01:53.255Z,63.42
2022-10-11T09:03:11.115Z,63.38
2022-10-11T09:04:15.202Z,63.29
2022-10-11T09:05:19.325Z,62.02
2022-10-11T09:06:23.419Z,61.35
2022-10-11T09:07:27.529Z,61.49
2022-10-11T09:08:31.632Z,60.39
2022-10-11T09:09:35.713Z,59.25
2022-10-11T09:10:39.848Z,59.36
2022-10-11T09:11:43.925Z,58.46
2022-10-11T09:12:48.044Z,58.75
2022-10-11T09:13:52.137Z,59.31
2022-10-11T09:14:56.254Z,58.14
2022-10-11T09:16:00.358Z,59.03
2022-10-11T09:17:04.480Z,58.89
2022-10-11T09:18:08.624Z,59.16
2022-10-11T09:19:12.783Z,59.84
2022-10-11T09:20:16.877Z,58.99
2022-10-11T09:21:20.992Z,59.14
2022-10-11T09:22:31.827Z,59.74
2022-10-11T09:23:35.979Z,59.47
2022-10-11T09:24:40.100Z,58.15
2022-10-11T09:25:44.244Z,58.19
2022-10-11T09:26:48.363Z,57.81
2022-10-11T09:28:05.045Z,57.44
2022-10-11T09:29:09.528Z,57.63
2022-10-11T09:30:13.732Z,57.89
2022-10-11T09:31:17.884Z,57.9
2022-10-11T09:32:22.013Z,57.56
2022-10-11T09:33:26.136Z,57.53
2022-10-11T09:34:30.236Z,57.25
2022-10-11T09:35:34.348Z,56.8
2022-10-11T09:36:38.476Z,56.77
2022-10-11T09:37:42.571Z,57.16
2022-10-11T09:38:46.685Z,57.66
2022-10-11T09:39:50.812Z,57.61
2022-10-11T09:40:57.171Z,57.79
2022-10-11T09:42:01.302Z,57.66
2022-10-11T09:43:05.429Z,57.65
2022-10-11T09:44:09.527Z,57.62
2022-10-11T09:45:13.647Z,57.42
2022-10-11T09:46:17.758Z,57.51
2022-10-11T09:47:21.906Z,57.6
2022-10-11T09:48:25.996Z,58.1
2022-10-11T09:49:30.134Z,58.01
2022-10-11T09:50:34.237Z,57.98
2022-10-11T09:51:38.357Z,58.04
2022-10-11T09:52:42.922Z,58.12
2022-10-11T09:53:47.034Z,58.16
2022-10-11T09:54:51.179Z,58.08
2022-10-11T09:55:55.297Z,58.12
2022-10-11T09:56:59.469Z,57.98
2022-10-11T09:58:03.606Z,58.12
2022-10-11T09:59:07.954Z,57.98
2022-10-11T10:00:12.046Z,57.92
2022-10-11T10:01:16.289Z,57.86
2022-10-11T10:02:20.443Z,57.7
2022-10-11T10:03:24.633Z,57.96
2022-10-11T10:04:37.645Z,57.77
2022-10-11T10:05:41.758Z,57.76
2022-10-11T10:06:45.853Z,58.08
2022-10-11T10:07:49.967Z,57.86
2022-10-11T10:08:54.092Z,57.9
2022-10-11T10:09:58.171Z,57.83
2022-10-11T10:11:02.302Z,57.91
2022-10-11T10:12:06.397Z,57.92
2022-10-11T10:13:10.490Z,57.86
2022-10-11T10:14:14.606Z,58.03
2022-10-11T10:15:18.716Z,57.96
2022-10-11T10:16:23.119Z,57.73
2022-10-11T10:17:27.223Z,57.67
2022-10-11T10:18:31.425Z,57.5
2022-10-11T10:19:35.584Z,57.4
2022-10-11T10:20:39.689Z,57.39
2022-10-11T10:21:43.813Z,57.27
2022-10-11T10:22:47.946Z,57.39
2022-10-11T10:23:52.059Z,57.28
2022-10-11T10:24:56.208Z,57.26
2022-10-11T10:26:00.323Z,57.21
2022-10-11T10:27:04.435Z,57.29
2022-10-11T10:28:08.672Z,57.4
2022-10-11T10:29:12.861Z,57.36
2022-10-11T10:30:17.158Z,57.37
2022-10-11T10:31:21.272Z,57.37
2022-10-11T10:32:25.737Z,57.42
2022-10-11T10:33:30.396Z,57.29
2022-10-11T10:34:34.502Z,57.39
2022-10-11T10:35:38.599Z,57.37
2022-10-11T10:36:42.694Z,57.46
2022-10-11T10:37:49.530Z,57.25
2022-10-11T10:38:55.763Z,57.27
2022-10-11T10:39:59.898Z,57.33
2022-10-11T10:41:04.054Z,57.3
2022-10-11T10:42:08.159Z,57.08
2022-10-11T10:43:12.295Z,57.1
2022-10-11T10:44:16.396Z,57.03
2022-10-11T10:45:23.641Z,57.89
2022-10-11T10:46:27.765Z,57.61
2022-10-11T10:47:34.858Z,57.81
2022-10-11T10:49:53.929Z,58.45
2022-10-11T10:50:58.552Z,58.8
2022-10-11T10:52:02.719Z,58.87
2022-10-11T10:53:42.697Z,58.93
2022-10-11T10:54:46.814Z,58.99
2022-10-11T10:55:53.826Z,59.18
2022-10-11T10:56:58.020Z,59.23
2022-10-11T10:58:02.157Z,59.35
2022-10-11T10:59:06.307Z,59.39
2022-10-11T11:00:10.416Z,59.5
2022-10-11T11:01:14.768Z,59.62
2022-10-11T11:02:42.553Z,59.75
2022-10-11T11:03:46.732Z,59.83
2022-10-11T11:04:51.064Z,59.83
2022-10-11T11:05:55.201Z,59.92
2022-10-11T11:06:59.300Z,59.96
2022-10-11T11:08:03.618Z,59.94
2022-10-11T11:09:07.715Z,60.02
2022-10-11T11:10:11.812Z,60.11
2022-10-11T11:11:15.926Z,60.24
2022-10-11T11:12:20.055Z,60.22
2022-10-11T11:13:24.166Z,60.22
2022-10-11T11:14:28.374Z,60.18
2022-10-11T11:15:39.286Z,60.29
2022-10-11T11:16:43.415Z,60.32
2022-10-11T11:17:47.517Z,60.27
2022-10-11T11:18:51.626Z,60.31
2022-10-11T11:19:55.728Z,60.23
2022-10-11T11:20:59.854Z,60.32
2022-10-11T11:22:03.986Z,60.39
2022-10-11T11:23:08.082Z,60.42
2022-10-11T11:24:12.247Z,60.4
2022-10-11T11:25:16.402Z,60.44
2022-10-11T11:26:20.500Z,60.47
2022-10-11T11:27:24.632Z,60.51
2022-10-11T11:28:29.033Z,60.45
2022-10-11T11:29:33.197Z,60.34
2022-10-11T11:30:37.320Z,60.13
2022-10-11T11:31:41.425Z,60.27
2022-10-11T11:32:47.805Z,60.13
2022-10-11T11:33:51.891Z,60.24
2022-10-11T11:34:56.035Z,60.4
2022-10-11T11:36:00.123Z,60.56
2022-10-11T11:37:04.211Z,60.64
2022-10-11T11:38:08.624Z,60.68
2022-10-11T11:39:12.723Z,60.64
2022-10-11T11:40:16.863Z,60.68
2022-10-11T11:41:20.989Z,60.61
2022-10-11T11:42:25.141Z,60.62
2022-10-11T11:43:29.278Z,60.75
2022-10-11T11:44:33.433Z,60.74
2022-10-11T11:45:37.537Z,60.84
2022-10-11T11:46:41.643Z,60.86
2022-10-11T11:47:45.749Z,60.95
2022-10-11T11:48:49.850Z,60.94
2022-10-11T11:49:56.657Z,61
2022-10-11T11:51:00.818Z,61.03
2022-10-11T11:52:04.987Z,61.01
2022-10-11T11:53:09.134Z,60.99
2022-10-11T11:54:13.235Z,61.14
2022-10-11T11:55:17.340Z,61.16
2022-10-11T11:56:21.425Z,61.23
2022-10-11T11:57:25.541Z,61.2
2022-10-11T11:58:29.655Z,61.22
2022-10-11T11:59:33.791Z,61.22
2022-10-11T12:00:41.025Z,61.26
2022-10-11T12:01:45.281Z,61.32
2022-10-11T12:02:49.435Z,61.29
2022-10-11T12:03:53.537Z,61.29
2022-10-11T12:04:57.886Z,61.4
2022-10-11T12:06:02.030Z,61.64
2022-10-11T12:07:18.839Z,61.64
2022-10-11T12:08:26.061Z,61.57
2022-10-11T12:09:30.159Z,61.59
2022-10-11T12:10:40.211Z,61.58
2022-10-11T12:11:44.318Z,61.55
2022-10-11T12:12:48.402Z,61.46
2022-10-11T12:13:52.499Z,61.44
2022-10-11T12:14:56.576Z,61.42
2022-10-11T12:16:00.800Z,61.54
2022-10-11T12:17:04.895Z,61.53
2022-10-11T12:18:09.006Z,61.44
2022-10-11T12:19:13.103Z,61.37
2022-10-11T12:20:17.207Z,61.38
2022-10-11T12:21:21.322Z,61.47
2022-10-11T12:22:28.047Z,61.38
2022-10-11T12:23:32.142Z,61.42
2022-10-11T12:24:36.237Z,61.41
2022-10-11T12:25:40.327Z,61.34
2022-10-11T12:26:44.818Z,61.37
2022-10-11T12:27:48.901Z,61.4
2022-10-11T12:28:53.229Z,61.21
2022-10-11T12:29:57.434Z,61.26
2022-10-11T12:31:01.596Z,61.32
2022-10-11T12:32:05.708Z,61.38
2022-10-11T12:33:09.827Z,61.3
2022-10-11T12:34:13.921Z,61.45
2022-10-11T12:35:18.066Z,61.41
2022-10-11T12:36:24.071Z,61.5
2022-10-11T12:37:28.261Z,61.48
2022-10-11T12:38:34.898Z,61.44
2022-10-11T12:39:39.150Z,61.43
2022-10-11T12:40:43.282Z,61.4
2022-10-11T12:41:47.407Z,61.47
2022-10-11T12:42:51.533Z,61.34
2022-10-11T12:43:55.878Z,61.32
2022-10-11T12:44:59.989Z,61.13
2022-10-11T12:46:04.852Z,60.98
2022-10-11T12:47:09.184Z,60.84
2022-10-11T12:48:13.304Z,60.66
2022-10-11T12:49:17.392Z,60.62
2022-10-11T12:50:21.486Z,60.51
2022-10-11T12:51:25.621Z,60.58
2022-10-11T12:52:29.755Z,60.93
2022-10-11T12:53:33.899Z,60.87
2022-10-11T12:54:39.353Z,61.01
2022-10-11T12:55:43.487Z,61.17
2022-10-11T12:56:47.654Z,61.17
2022-10-11T12:57:51.801Z,61.58
2022-10-11T12:58:56.144Z,61.54
2022-10-11T13:00:00.325Z,61.52
2022-10-11T13:01:06.685Z,61.6
2022-10-11T13:02:11.205Z,61.67
2022-10-11T13:03:15.356Z,61.61
2022-10-11T13:04:19.498Z,61.42
2022-10-11T13:05:23.630Z,61.29
2022-10-11T13:06:27.791Z,61.09
2022-10-11T13:07:31.937Z,60.64
2022-10-11T13:08:36.053Z,60.44
2022-10-11T13:09:41.048Z,60.45
2022-10-11T13:10:46.427Z,60.22
2022-10-11T13:11:50.578Z,60.12
2022-10-11T13:12:54.712Z,60.13
2022-10-11T13:13:58.872Z,60.18
2022-10-11T13:15:03.028Z,60.13
2022-10-11T13:16:08.736Z,60.03
2022-10-11T13:17:13.009Z,60.1
2022-10-11T13:18:17.137Z,59.91
2022-10-11T13:19:21.285Z,59.75
2022-10-11T13:20:25.479Z,59.43
2022-10-11T13:21:29.863Z,59.31
2022-10-11T13:22:34.093Z,59.38
2022-10-11T13:23:38.252Z,59.53
2022-10-11T13:24:42.390Z,59.48
2022-10-11T13:25:46.563Z,59.45
2022-10-11T13:26:50.727Z,59.2
2022-10-11T13:27:54.913Z,59.04
2022-10-11T13:28:59.275Z,58.95
2022-10-11T13:30:03.442Z,59.28
2022-10-11T13:31:09.117Z,59.21
2022-10-11T13:32:13.484Z,59.56
2022-10-11T13:33:20.993Z,60.21
2022-10-11T13:34:25.572Z,60.35
2022-10-11T13:35:29.715Z,60.6
2022-10-11T13:36:34.127Z,60.67
2022-10-11T13:37:38.670Z,60.83
2022-10-11T13:38:42.809Z,60.88
2022-10-11T13:39:46.945Z,60.65
2022-10-11T13:40:53.120Z,60.75
2022-10-11T13:41:57.292Z,60.91
2022-10-11T13:43:01.541Z,60.91
2022-10-11T13:44:06.016Z,60.91
2022-10-11T13:45:10.409Z,60.94
2022-10-11T13:46:14.566Z,60.87
2022-10-11T13:47:18.758Z,60.9
2022-10-11T13:48:22.915Z,60.89
2022-10-11T13:49:27.056Z,60.93
2022-10-11T13:50:31.607Z,60.97
2022-10-11T13:51:35.810Z,60.94
2022-10-11T13:52:39.952Z,60.96
2022-10-11T13:53:44.080Z,61.04
2022-10-11T13:54:48.223Z,61.04
2022-10-11T13:55:52.378Z,61.09
2022-10-11T13:56:56.545Z,61.11
2022-10-11T13:58:00.681Z,61.16
2022-10-11T13:59:04.885Z,61.1
2022-10-11T14:00:09.121Z,61.12
2022-10-11T14:01:13.460Z,61.16
2022-10-11T14:02:17.600Z,61.27
2022-10-11T14:03:21.743Z,61.23
2022-10-11T14:04:31.319Z,61.34
2022-10-11T14:05:35.876Z,61.36
2022-10-11T14:06:40.050Z,61.39
2022-10-11T14:07:44.162Z,61.43
2022-10-11T14:08:48.653Z,61.47
2022-10-11T14:09:52.811Z,61.47
2022-10-11T14:11:07.145Z,61.44
2022-10-11T14:12:11.371Z,61.41
2022-10-11T14:13:15.522Z,61.44
2022-10-11T14:14:19.669Z,61.68
2022-10-11T14:15:23.801Z,61.79
2022-10-11T14:16:27.948Z,61.82
2022-10-11T14:17:32.116Z,61.97
2022-10-11T14:18:36.257Z,61.89
2022-10-11T14:19:40.414Z,61.73
2022-10-11T14:20:44.559Z,61.86
2022-10-11T14:21:48.727Z,61.83
2022-10-11T14:22:52.866Z,61.97
2022-10-11T14:23:56.966Z,62.01
2022-10-11T14:25:01.112Z,61.87
2022-10-11T14:26:06.611Z,61.94
2022-10-11T14:27:10.933Z,62.11
2022-10-11T14:28:15.235Z,62.02
2022-10-11T14:29:19.667Z,61.72
2022-10-11T14:30:29.206Z,61.83
2022-10-11T14:31:34.998Z,61.89
2022-10-11T14:32:40.918Z,61.86
2022-10-11T14:33:45.090Z,61.92
2022-10-11T14:34:49.212Z,61.94